Hyrum, Utah
Current Conditions -  °F | °C
As of 10:51 AM on Friday 24 Oct 2014 (Local Time) from KLGU Reporting Station
Clear Clear  
Wind Chill: 51°   Ceiling: Unl
Heat Index: 51°   Visibility: 10mi
Dew Point: 37°   Wind: 0mph
Humidity: 59%   Direction: NA
Pressure: 30.21"   Gusts: NA
Location:  41.63°N, 111.85°W
Report Text: KLGU 241651Z AUTO 00000KT 10SM CLR 11/03 A3021 RMK AO2 SLP212 T01060028 TSNO
Loading
Personal Weather Stations






























Interactive Weather Map
Tropical Storm Tracking
New forecast layout! Learn more

10-Day Weather Forecast

Advertisements
Track Severe Weather on mobile